Time;durP1;ratioP1;P1;durP2;ratioP2;P2;SDS_P1;SDS_P2;PMS_P1;PMS_P2;Temp;Humidity;BMP_temperature;BMP_pressure;BME280_temperature;BME280_humidity;BME280_pressure;Samples;Min_cycle;Max_cycle;Signal;HPM_P1;HPM_P2
2021/05/27 00:00:54;;;;;;;9.10;4.80;;;;;;;10.39;68.51;92634.47;4975807;28;20050;-76
2021/05/27 00:03:19;;;;;;;10.30;4.32;;;;;;;10.38;68.28;92634.75;4974922;28;20094;-74
2021/05/27 00:05:45;;;;;;;11.63;4.82;;;;;;;10.38;67.72;92637.38;4975298;28;20519;-75
2021/05/27 00:08:11;;;;;;;13.00;4.97;;;;;;;10.36;68.11;92639.50;4975302;28;20070;-75
2021/05/27 00:10:37;;;;;;;10.30;4.95;;;;;;;10.34;68.12;92634.56;4972778;28;20420;-74
2021/05/27 00:13:03;;;;;;;10.10;5.15;;;;;;;10.35;67.86;92638.72;4975386;28;20082;-75
2021/05/27 00:15:31;;;;;;;11.60;4.53;;;;;;;10.34;67.44;92637.16;4975350;28;20027;-74
2021/05/27 00:17:57;;;;;;;10.15;4.88;;;;;;;10.33;67.81;92629.59;4974761;28;20054;-75
2021/05/27 00:20:23;;;;;;;8.35;4.78;;;;;;;10.30;68.30;92630.94;4975141;28;20051;-75
2021/05/27 00:22:49;;;;;;;10.55;4.65;;;;;;;10.26;68.08;92634.34;4975037;28;20484;-75
2021/05/27 00:25:15;;;;;;;9.82;5.20;;;;;;;10.26;68.30;92629.13;4990198;28;20031;-76
2021/05/27 00:27:43;;;;;;;16.02;5.50;;;;;;;10.24;68.24;92634.63;4957840;28;20054;-74
2021/05/27 00:30:10;;;;;;;8.52;4.80;;;;;;;10.21;68.36;92630.75;4957682;28;20050;-74
2021/05/27 00:32:36;;;;;;;11.30;5.38;;;;;;;10.20;68.70;92629.19;4957644;28;20142;-75
2021/05/27 00:35:02;;;;;;;13.10;6.07;;;;;;;10.17;68.40;92613.28;4975077;28;20113;-75
2021/05/27 00:37:27;;;;;;;10.95;5.88;;;;;;;10.18;67.97;92612.22;4957670;28;20126;-74
2021/05/27 00:39:53;;;;;;;11.73;5.68;;;;;;;10.19;68.16;92613.78;4957384;28;20099;-75
2021/05/27 00:42:19;;;;;;;11.27;5.32;;;;;;;10.21;68.94;92604.56;4974261;28;20058;-75
2021/05/27 00:44:57;;;;;;;15.70;5.68;;;;;;;10.17;68.64;92611.44;4975016;28;20045;-75
2021/05/27 00:47:24;;;;;;;12.85;5.88;;;;;;;10.12;69.21;92606.25;4989591;28;20129;-75
2021/05/27 00:49:50;;;;;;;14.07;6.07;;;;;;;10.07;68.69;92610.78;4989522;28;20122;-75
2021/05/27 00:52:16;;;;;;;13.18;6.03;;;;;;;10.04;69.03;92606.88;4989683;28;20130;-74
2021/05/27 00:54:42;;;;;;;14.77;6.13;;;;;;;10.01;68.87;92607.44;4974639;28;20039;-75
2021/05/27 00:57:16;;;;;;;13.30;6.45;;;;;;;10.03;68.36;92604.56;4974617;28;20055;-75
2021/05/27 00:59:42;;;;;;;12.35;6.18;;;;;;;10.05;68.51;92608.44;4974369;28;20171;-75
2021/05/27 01:02:08;;;;;;;17.50;6.88;;;;;;;10.06;68.87;92604.75;4972978;28;20126;-74
2021/05/27 01:04:33;;;;;;;13.60;6.05;;;;;;;10.04;69.22;92596.41;4974288;28;20489;-74
2021/05/27 01:06:59;;;;;;;11.48;6.18;;;;;;;10.01;69.07;92607.44;4974420;28;20316;-75
2021/05/27 01:09:25;;;;;;;12.48;6.10;;;;;;;9.99;68.72;92604.31;4970525;28;20077;-74
2021/05/27 01:11:51;;;;;;;10.15;6.05;;;;;;;9.96;68.93;92603.03;4956648;28;20082;-75
2021/05/27 01:17:05;;;;;;;12.88;6.13;;;;;;;9.94;69.33;92601.78;4934135;28;20077;-75
2021/05/27 01:19:31;;;;;;;13.95;5.97;;;;;;;9.90;68.94;92596.31;4974042;28;20043;-75
2021/05/27 01:21:57;;;;;;;14.80;6.20;;;;;;;9.86;69.32;92591.91;4956647;28;20061;-75
2021/05/27 01:24:24;;;;;;;9.18;5.18;;;;;;;9.87;69.25;92593.47;4956511;28;20047;-75
2021/05/27 01:26:50;;;;;;;10.20;5.38;;;;;;;9.85;69.48;92598.22;4956141;28;20084;-75
2021/05/27 01:29:16;;;;;;;10.60;5.10;;;;;;;9.83;69.11;92595.88;4956347;28;20047;-75
2021/05/27 01:31:41;;;;;;;12.00;5.88;;;;;;;9.82;69.77;92594.31;4973948;28;20042;-75
2021/05/27 01:34:12;;;;;;;11.50;6.00;;;;;;;9.80;69.59;92591.97;4956614;28;20031;-75
2021/05/27 01:36:46;;;;;;;9.07;5.47;;;;;;;9.79;69.38;92590.44;4972640;28;20058;-74
2021/05/27 01:39:12;;;;;;;11.50;5.75;;;;;;;9.79;69.34;92590.44;4988775;28;20043;-75
2021/05/27 01:41:39;;;;;;;15.65;5.63;;;;;;;9.78;69.53;92594.09;4973869;28;20034;-75
2021/05/27 01:44:05;;;;;;;11.68;6.00;;;;;;;9.76;70.57;92590.97;4988853;28;20523;-75
2021/05/27 01:46:31;;;;;;;14.35;5.95;;;;;;;9.74;70.55;92587.06;4972339;28;20125;-75
2021/05/27 01:48:57;;;;;;;11.75;6.20;;;;;;;9.72;70.31;92595.19;4973515;28;20074;-75
2021/05/27 01:51:23;;;;;;;14.63;6.80;;;;;;;9.72;69.86;92587.34;4956260;28;20058;-75
2021/05/27 01:53:49;;;;;;;10.88;6.75;;;;;;;9.73;69.53;92591.53;4955130;28;20034;-75
2021/05/27 01:56:15;;;;;;;15.50;6.50;;;;;;;9.75;69.78;92593.88;4988244;28;20031;-76
2021/05/27 01:58:41;;;;;;;12.45;6.45;;;;;;;9.73;69.62;92591.53;4988241;28;20043;-76
2021/05/27 02:01:07;;;;;;;16.48;6.20;;;;;;;9.75;70.90;92589.44;4988161;28;20050;-76
2021/05/27 02:03:36;;;;;;;11.73;6.07;;;;;;;9.76;71.68;92585.75;4955940;28;20043;-75
2021/05/27 02:06:10;;;;;;;12.40;6.78;;;;;;;9.71;71.10;92580.56;4973126;28;20043;-75
2021/05/27 02:08:36;;;;;;;11.25;6.50;;;;;;;9.68;71.49;92580.34;4971330;28;20393;-75
2021/05/27 02:11:04;;;;;;;14.40;6.45;;;;;;;9.63;71.62;92586.41;4955238;28;20047;-76
2021/05/27 02:13:32;;;;;;;16.00;6.70;;;;;;;9.61;71.54;92579.91;4955773;28;20058;-75
2021/05/27 02:16:01;;;;;;;14.20;7.07;;;;;;;9.61;70.93;92582.50;4955719;28;20066;-76
2021/05/27 02:18:27;;;;;;;16.52;7.50;;;;;;;9.64;71.15;92577.53;4955672;28;20066;-76
2021/05/27 02:20:55;;;;;;;14.93;7.25;;;;;;;9.64;70.68;92580.13;4973095;28;20050;-75
2021/05/27 02:23:20;;;;;;;12.20;6.72;;;;;;;9.63;70.82;92580.41;4955497;28;20054;-75
2021/05/27 02:26:04;;;;;;;14.13;7.53;;;;;;;9.62;70.46;92568.41;4955250;28;20142;-76
2021/05/27 02:29:00;;;;;;;12.73;8.00;;;;;;;9.60;70.29;92566.06;4949962;28;20050;-75
2021/05/27 02:31:27;;;;;;;14.20;6.93;;;;;;;9.59;70.71;92570.50;4955395;28;20047;-75
2021/05/27 02:33:53;;;;;;;16.10;8.20;;;;;;;9.58;70.78;92562.94;4972799;28;20058;-75
2021/05/27 02:36:23;;;;;;;17.20;8.05;;;;;;;9.56;71.29;92570.28;4972712;28;20579;-75
2021/05/27 02:38:49;;;;;;;14.60;7.53;;;;;;;9.52;70.97;92558.81;4972577;28;20421;-75
2021/05/27 02:41:18;;;;;;;14.65;7.68;;;;;;;9.53;70.97;92557.78;4972675;28;20058;-75
2021/05/27 02:43:46;;;;;;;14.10;7.07;;;;;;;9.53;71.29;92557.78;4987412;28;20042;-75
2021/05/27 02:46:13;;;;;;;14.50;6.95;;;;;;;9.52;71.10;92551.75;4972546;28;20453;-75
2021/05/27 02:48:39;;;;;;;14.52;7.28;;;;;;;9.52;71.22;92553.59;4954928;28;20055;-75
2021/05/27 02:51:06;;;;;;;12.00;7.07;;;;;;;9.53;70.56;92560.38;4955244;28;20038;-75
2021/05/27 02:53:31;;;;;;;15.82;7.43;;;;;;;9.53;70.98;92555.16;4972586;28;20058;-75
2021/05/27 02:55:57;;;;;;;18.27;7.93;;;;;;;9.50;71.24;92553.06;4954936;28;20055;-75
2021/05/27 02:58:29;;;;;;;11.90;7.40;;;;;;;9.51;71.08;92554.66;4954919;28;20051;-75
2021/05/27 03:00:57;;;;;;;17.15;8.23;;;;;;;9.50;71.19;92553.88;4954992;28;20047;-75
2021/05/27 03:03:24;;;;;;;18.38;8.40;;;;;;;9.51;71.36;92544.19;4954596;28;20046;-75
2021/05/27 03:05:51;;;;;;;14.77;7.85;;;;;;;9.54;71.27;92554.09;4972210;28;20054;-75
2021/05/27 03:08:19;;;;;;;15.18;7.28;;;;;;;9.59;72.66;92554.03;4954010;28;20082;-75
2021/05/27 03:10:48;;;;;;;13.18;7.95;;;;;;;9.54;72.52;92548.84;4953170;28;20137;-75
2021/05/27 03:13:14;;;;;;;14.95;7.82;;;;;;;9.52;72.80;92546.53;4972279;28;20082;-75
2021/05/27 03:15:40;;;;;;;15.48;8.68;;;;;;;9.49;72.97;92538.47;4954833;28;20066;-75
2021/05/27 03:18:07;;;;;;;16.38;8.23;;;;;;;9.45;72.71;92532.25;4954724;28;20035;-75
2021/05/27 03:20:35;;;;;;;17.60;8.05;;;;;;;9.43;72.26;92526.50;4987051;28;20125;-74
2021/05/27 03:23:03;;;;;;;12.88;7.70;;;;;;;9.41;72.69;92526.00;4954665;28;20091;-75
2021/05/27 03:25:29;;;;;;;18.45;8.07;;;;;;;9.38;72.32;92525.50;4954714;28;20035;-75
2021/05/27 03:27:55;;;;;;;14.50;7.25;;;;;;;9.35;73.10;92525.28;4954704;28;20082;-75
2021/05/27 03:30:23;;;;;;;15.35;7.55;;;;;;;9.33;72.95;92533.41;4970432;28;20047;-75
2021/05/27 03:32:49;;;;;;;13.63;7.35;;;;;;;9.29;72.98;92532.38;4938387;28;20509;-75
2021/05/27 03:35:16;;;;;;;12.98;7.30;;;;;;;9.28;72.77;92538.69;4954681;28;20039;-76
2021/05/27 03:37:42;;;;;;;13.93;6.90;;;;;;;9.30;72.50;92547.03;4971385;28;20054;-75
2021/05/27 03:40:13;;;;;;;13.07;6.88;;;;;;;9.30;73.03;92536.56;4986879;28;20042;-76
2021/05/27 03:42:42;;;;;;;14.40;6.80;;;;;;;9.28;72.91;92536.06;4954573;28;20047;-75
2021/05/27 03:45:13;;;;;;;11.85;6.50;;;;;;;9.27;72.73;92528.50;4954553;28;20046;-75
2021/05/27 03:47:44;;;;;;;15.32;7.72;;;;;;;9.29;72.50;92529.78;4986616;28;20082;-75
2021/05/27 03:50:12;;;;;;;11.90;7.18;;;;;;;9.31;73.04;92530.28;4970563;28;20287;-75
2021/05/27 03:52:39;;;;;;;17.50;6.72;;;;;;;9.32;72.88;92539.69;4953823;28;20043;-76
2021/05/27 03:55:07;;;;;;;12.77;6.85;;;;;;;9.33;73.18;92541.22;4954580;28;20466;-76
2021/05/27 03:57:33;;;;;;;10.45;5.82;;;;;;;9.33;72.83;92546.47;4971827;28;20450;-75
2021/05/27 04:02:54;;;;;;;13.63;6.18;;;;;;;9.37;72.99;92542.25;4954505;28;20054;-74
2021/05/27 04:08:17;;;;;;;12.73;6.10;;;;;;;9.46;72.87;92544.25;4971658;28;20074;-75
2021/05/27 04:10:45;;;;;;;9.30;5.25;;;;;;;9.47;72.29;92535.34;4969390;28;20067;-74
2021/05/27 04:13:11;;;;;;;11.48;5.38;;;;;;;9.52;72.13;92537.91;4971816;28;20043;-75
2021/05/27 04:15:38;;;;;;;16.58;5.80;;;;;;;9.58;72.27;92552.47;4972111;28;20106;-75
2021/05/27 04:18:08;;;;;;;10.23;5.40;;;;;;;9.64;71.92;92550.59;4957732;28;20046;-75
2021/05/27 04:20:39;;;;;;;12.98;5.78;;;;;;;9.71;72.46;92545.81;4975113;28;20386;-75
2021/05/27 04:23:08;;;;;;;11.55;5.93;;;;;;;9.74;72.33;92546.03;4974575;28;20050;-75
2021/05/27 04:25:34;;;;;;;14.15;6.03;;;;;;;9.79;72.22;92542.56;4974268;28;20043;-75
2021/05/27 04:28:00;;;;;;;14.77;6.07;;;;;;;9.85;71.99;92545.91;4974606;28;20458;-75
2021/05/27 04:30:27;;;;;;;10.30;6.05;;;;;;;9.94;72.05;92552.09;4973685;28;20031;-75
2021/05/27 04:33:06;;;;;;;10.93;6.22;;;;;;;10.02;71.71;92546.25;4975050;28;20523;-75
2021/05/27 04:35:39;;;;;;;13.82;6.32;;;;;;;10.08;71.09;92542.47;4979151;28;20034;-74
2021/05/27 04:38:10;;;;;;;11.80;6.03;;;;;;;10.16;71.59;92546.31;4994153;28;20050;-74
2021/05/27 04:40:41;;;;;;;13.65;6.45;;;;;;;10.19;71.77;92545.75;4978445;28;20121;-76
2021/05/27 04:43:07;;;;;;;8.98;5.40;;;;;;;10.28;71.00;92551.13;4975343;28;20075;-75
2021/05/27 04:45:34;;;;;;;13.32;5.63;;;;;;;10.36;70.83;92553.16;4942734;28;20066;-74
2021/05/27 04:48:04;;;;;;;11.40;5.55;;;;;;;10.45;70.97;92548.03;4974613;28;20413;-76
2021/05/27 04:50:30;;;;;;;11.90;5.45;;;;;;;10.55;71.25;92545.31;4957273;28;20062;-75
2021/05/27 04:52:56;;;;;;;21.55;5.72;;;;;;;10.65;71.64;92533.91;4974648;28;20046;-75
2021/05/27 04:55:22;;;;;;;9.23;5.03;;;;;;;10.76;70.95;92535.28;4974329;28;20047;-75
2021/05/27 04:57:47;;;;;;;11.27;5.72;;;;;;;10.83;68.88;92535.72;4974771;28;20502;-76
2021/05/27 05:00:19;;;;;;;9.48;5.55;;;;;;;10.92;68.07;92536.63;4941131;28;20428;-75
2021/05/27 05:02:44;;;;;;;16.05;5.35;;;;;;;11.02;67.69;92533.06;4974185;28;20050;-76
2021/05/27 05:05:13;;;;;;;11.73;5.30;;;;;;;11.17;68.81;92537.28;4974179;28;20425;-74
2021/05/27 05:07:40;;;;;;;11.07;4.93;;;;;;;11.25;68.70;92532.13;4977079;28;20065;-78
2021/05/27 05:10:11;;;;;;;11.35;4.65;;;;;;;11.30;68.76;92531.28;4958957;28;20513;-75
2021/05/27 05:12:47;;;;;;;8.27;4.85;;;;;;;11.37;68.31;92541.38;4989212;28;20126;-76
2021/05/27 05:15:16;;;;;;;14.20;5.30;;;;;;;11.44;68.41;92532.09;4992408;28;20096;-74
2021/05/27 05:17:43;;;;;;;12.45;5.38;;;;;;;11.61;67.92;92543.84;4993660;28;20030;-75
2021/05/27 05:20:09;;;;;;;13.57;5.38;;;;;;;11.79;66.95;92537.72;4989618;28;20454;-76
2021/05/27 05:22:35;;;;;;;13.45;5.82;;;;;;;12.01;66.50;92541.53;4974097;28;20490;-75
2021/05/27 05:25:01;;;;;;;9.68;5.50;;;;;;;12.26;65.84;92540.25;4975380;28;20047;-76
2021/05/27 05:27:27;;;;;;;16.75;6.00;;;;;;;12.43;65.51;92547.50;4956718;28;20070;-74
2021/05/27 05:29:52;;;;;;;14.07;5.97;;;;;;;12.63;63.66;92544.44;4974230;28;20054;-76
2021/05/27 05:32:18;;;;;;;17.13;6.80;;;;;;;12.85;62.79;92550.78;4973777;28;20436;-76
2021/05/27 05:34:44;;;;;;;19.83;5.10;;;;;;;12.96;62.17;92540.81;4973452;28;20039;-76
2021/05/27 05:37:09;;;;;;;19.45;8.02;;;;;;;13.02;63.42;92548.28;4973809;28;20050;-76
2021/05/27 05:39:35;;;;;;;10.93;5.80;;;;;;;13.11;63.44;92549.09;4980224;28;20077;-76
2021/05/27 05:42:01;;;;;;;10.25;5.47;;;;;;;13.32;62.81;92543.38;4981624;28;20084;-75
2021/05/27 05:44:26;;;;;;;9.20;4.57;;;;;;;13.53;63.32;92544.44;4973903;28;20070;-76
2021/05/27 05:46:52;;;;;;;8.05;3.83;;;;;;;13.52;64.85;92540.22;4956519;28;20336;-76
2021/05/27 05:49:18;;;;;;;8.52;4.25;;;;;;;13.93;63.67;92544.41;4973499;28;20030;-76
2021/05/27 05:51:43;;;;;;;7.05;4.10;;;;;;;16.85;54.40;92544.78;4956322;28;20051;-76
2021/05/27 05:54:09;;;;;;;8.77;4.28;;;;;;;18.56;49.16;92534.84;4956433;28;20057;-77
2021/05/27 05:56:34;;;;;;;7.97;4.00;;;;;;;20.10;43.79;92534.41;4956523;28;20043;-76
2021/05/27 05:59:00;;;;;;;7.50;4.22;;;;;;;21.38;40.39;92537.50;4987778;28;20066;-77
2021/05/27 06:01:26;;;;;;;8.65;4.25;;;;;;;22.79;38.01;92541.38;4971676;28;20047;-77
2021/05/27 06:03:52;;;;;;;6.93;4.15;;;;;;;23.71;34.99;92535.59;4956552;28;20043;-77
2021/05/27 06:06:53;;;;;;;14.02;4.80;;;;;;;25.17;32.40;92535.16;4964151;28;20529;-77
2021/05/27 06:09:19;;;;;;;8.13;4.00;;;;;;;24.14;32.89;92530.66;4956702;28;20046;-78
2021/05/27 06:11:45;;;;;;;9.68;4.13;;;;;;;23.13;36.48;92538.78;4965608;28;20073;-77
2021/05/27 06:14:10;;;;;;;8.50;3.70;;;;;;;23.05;36.55;92543.25;4944455;28;20043;-77
2021/05/27 06:16:36;;;;;;;11.50;3.85;;;;;;;23.21;36.50;92529.72;4967513;28;20076;-77
2021/05/27 06:19:02;;;;;;;7.90;3.65;;;;;;;22.31;37.27;92535.72;4992640;28;20129;-77
2021/05/27 06:21:51;;;;;;;12.43;4.18;;;;;;;20.32;41.79;92540.25;4966610;28;20042;-77
2021/05/27 06:24:26;;;;;;;13.00;4.93;;;;;;;22.01;38.51;92542.47;4973236;28;20124;-77
2021/05/27 06:26:52;;;;;;;13.32;6.40;;;;;;;21.59;39.89;92542.50;4993182;28;20547;-78
2021/05/27 06:29:18;;;;;;;10.07;4.78;;;;;;;21.05;40.10;92540.66;4981707;28;20045;-77
2021/05/27 06:31:45;;;;;;;8.98;4.35;;;;;;;18.18;46.75;92546.59;4971487;28;20130;-78
2021/05/27 06:34:12;;;;;;;13.98;5.85;;;;;;;20.20;42.23;92545.63;4977934;28;20046;-77
2021/05/27 06:36:38;;;;;;;15.13;4.47;;;;;;;21.94;38.72;92537.00;4941123;28;20054;-77
2021/05/27 06:39:04;;;;;;;14.15;4.45;;;;;;;22.06;38.38;92538.72;4960412;28;20801;-78
2021/05/27 06:41:30;;;;;;;9.02;4.03;;;;;;;21.05;40.38;92540.66;4977402;28;20051;-78
2021/05/27 06:43:55;;;;;;;11.93;4.85;;;;;;;17.78;45.49;92541.88;4969754;28;20054;-77
2021/05/27 06:46:21;;;;;;;8.40;4.53;;;;;;;17.50;48.65;92537.22;4965667;28;20057;-78
2021/05/27 06:48:48;;;;;;;15.93;5.18;;;;;;;16.88;49.24;92538.09;4961185;28;20050;-77
2021/05/27 06:51:14;;;;;;;13.30;7.32;;;;;;;16.96;51.96;92538.03;4979776;28;20042;-78
2021/05/27 06:53:39;;;;;;;16.95;5.60;;;;;;;16.37;52.41;92546.81;4977803;28;20064;-78
2021/05/27 06:56:07;;;;;;;9.75;4.60;;;;;;;16.39;53.28;92541.97;4959361;28;20042;-78
2021/05/27 06:58:35;;;;;;;12.80;4.68;;;;;;;15.47;57.58;92533.78;4985407;28;20069;-78
2021/05/27 07:01:01;;;;;;;12.43;4.90;;;;;;;15.25;57.03;92540.06;4963079;28;20054;-77
2021/05/27 07:03:28;;;;;;;12.88;4.53;;;;;;;16.00;55.96;92535.94;4990320;28;20416;-78
2021/05/27 07:05:54;;;;;;;11.98;4.95;;;;;;;16.82;53.97;92540.16;4948191;28;20055;-78
2021/05/27 07:08:20;;;;;;;15.68;5.00;;;;;;;16.52;52.81;92532.25;4983698;28;20069;-78
2021/05/27 07:10:45;;;;;;;13.00;4.65;;;;;;;16.91;51.46;92540.88;5001189;28;20046;-77
2021/05/27 07:13:11;;;;;;;8.50;4.30;;;;;;;16.48;52.53;92535.84;4959489;28;20039;-78
2021/05/27 07:15:38;;;;;;;8.73;4.00;;;;;;;15.70;56.68;92537.00;4957746;28;20125;-78
2021/05/27 07:18:05;;;;;;;12.50;4.97;;;;;;;15.62;55.57;92536.69;4942252;28;20089;-78
2021/05/27 07:20:31;;;;;;;11.60;5.00;;;;;;;16.29;54.71;92539.69;4974307;28;20097;-78
2021/05/27 07:23:00;;;;;;;11.57;5.53;;;;;;;16.22;52.77;92540.19;4976310;28;20447;-77
2021/05/27 07:25:26;;;;;;;10.68;4.60;;;;;;;16.27;54.62;92539.25;4957460;28;20058;-77
2021/05/27 07:27:53;;;;;;;12.50;4.63;;;;;;;16.10;55.17;92541.97;4954712;28;20046;-77
2021/05/27 07:30:21;;;;;;;9.43;3.97;;;;;;;15.29;57.43;92540.97;4972440;28;20501;-77
2021/05/27 07:32:48;;;;;;;13.23;4.70;;;;;;;15.77;55.71;92537.31;4988460;28;20039;-77
2021/05/27 07:35:14;;;;;;;10.90;4.47;;;;;;;15.89;57.44;92539.28;4969968;28;20501;-77
2021/05/27 07:37:40;;;;;;;8.88;4.90;;;;;;;15.72;57.27;92537.50;4971146;28;20038;-77
2021/05/27 07:40:07;;;;;;;14.40;4.85;;;;;;;15.53;58.92;92541.22;4954222;28;20583;-77
2021/05/27 07:42:34;;;;;;;12.05;4.95;;;;;;;15.79;58.61;92541.19;4938630;28;20054;-77
2021/05/27 07:44:59;;;;;;;14.38;4.90;;;;;;;15.56;58.36;92534.56;4951165;29;20138;-77
2021/05/27 07:47:25;;;;;;;9.32;4.85;;;;;;;15.80;58.18;92544.59;4987401;28;20177;-77
2021/05/27 07:49:51;;;;;;;11.38;5.82;;;;;;;15.97;58.18;92541.13;4978061;28;20046;-77
2021/05/27 07:52:17;;;;;;;10.10;5.35;;;;;;;15.94;59.11;92550.44;4957697;28;20405;-77
2021/05/27 07:54:43;;;;;;;11.35;4.97;;;;;;;16.29;57.61;92547.63;4982176;28;20064;-77
2021/05/27 07:57:10;;;;;;;9.95;4.75;;;;;;;15.09;61.06;92551.09;4982066;28;20046;-78
2021/05/27 07:59:37;;;;;;;9.35;4.65;;;;;;;15.86;59.57;92555.75;4984433;28;20048;-77
2021/05/27 08:02:02;;;;;;;11.55;5.40;;;;;;;16.23;59.78;92546.25;4959936;28;20397;-78
2021/05/27 08:04:28;;;;;;;8.10;4.43;;;;;;;16.60;57.29;92546.50;4980066;28;20043;-78
2021/05/27 08:06:55;;;;;;;13.70;4.40;;;;;;;16.30;57.42;92549.19;4985642;28;20452;-77
2021/05/27 08:09:21;;;;;;;10.43;5.57;;;;;;;16.54;55.54;92537.22;4958982;28;20058;-77
2021/05/27 08:11:47;;;;;;;10.10;4.60;;;;;;;16.44;55.56;92541.78;4958710;28;20051;-77
2021/05/27 08:14:13;;;;;;;11.95;4.65;;;;;;;16.22;56.04;92539.44;4927566;28;20130;-77
2021/05/27 08:16:38;;;;;;;7.10;4.65;;;;;;;16.42;53.83;92543.19;4979487;28;20061;-77
2021/05/27 08:19:05;;;;;;;12.55;4.63;;;;;;;15.43;56.86;92541.56;4961497;28;20049;-77
2021/05/27 08:21:31;;;;;;;11.75;4.30;;;;;;;16.23;56.06;92540.97;4959017;28;20043;-76
2021/05/27 08:23:58;;;;;;;12.98;4.68;;;;;;;16.62;54.56;92544.31;4953797;28;20496;-76
2021/05/27 08:26:24;;;;;;;10.25;4.78;;;;;;;16.46;52.67;92546.75;4988215;28;20057;-76
2021/05/27 08:28:52;;;;;;;10.15;5.25;;;;;;;16.38;52.28;92540.41;4981151;28;20056;-76
2021/05/27 08:31:18;;;;;;;10.63;4.90;;;;;;;17.20;53.89;92536.56;4944164;28;20038;-76
2021/05/27 08:33:44;;;;;;;10.15;4.65;;;;;;;17.23;52.14;92541.97;4963976;28;20429;-76
2021/05/27 08:36:10;;;;;;;9.00;4.53;;;;;;;16.98;51.52;92535.81;4981929;28;20043;-76
2021/05/27 08:38:36;;;;;;;10.48;5.80;;;;;;;16.40;52.65;92540.88;4977494;28;20070;-76
2021/05/27 08:41:02;;;;;;;17.67;9.68;;;;;;;16.23;52.79;92549.69;4974858;28;20075;-76
2021/05/27 08:43:32;;;;;;;22.38;6.03;;;;;;;16.89;52.99;92544.91;4987359;28;20081;-76
2021/05/27 08:46:00;;;;;;;11.23;6.40;;;;;;;16.60;53.40;92542.00;4977498;28;20078;-76
2021/05/27 08:48:26;;;;;;;14.40;6.75;;;;;;;16.75;53.11;92545.16;4974876;28;20489;-77
2021/05/27 08:50:52;;;;;;;12.20;6.75;;;;;;;16.77;51.10;92549.00;4994036;28;20046;-76
2021/05/27 08:53:19;;;;;;;16.20;6.68;;;;;;;16.99;52.28;92545.28;4994046;28;20129;-76
2021/05/27 08:55:47;;;;;;;12.80;5.60;;;;;;;17.42;53.62;92546.00;4994052;28;20066;-76
2021/05/27 08:58:13;;;;;;;14.52;5.80;;;;;;;17.33;52.30;92543.44;4976751;28;20042;-75
2021/05/27 09:00:40;;;;;;;8.98;4.75;;;;;;;17.51;52.04;92546.69;4993938;28;20074;-76
2021/05/27 09:03:07;;;;;;;10.98;5.00;;;;;;;17.17;52.77;92545.91;4993501;28;20110;-76
2021/05/27 09:05:37;;;;;;;9.85;4.68;;;;;;;17.11;52.47;92547.22;4960458;28;20505;-75
2021/05/27 09:08:06;;;;;;;15.15;5.43;;;;;;;17.38;52.07;92545.09;4994185;28;20100;-76
2021/05/27 09:10:46;;;;;;;12.30;5.20;;;;;;;17.29;52.32;92539.91;4956257;28;20149;-76
2021/05/27 09:13:14;;;;;;;12.20;4.57;;;;;;;17.68;51.64;92546.50;4974378;28;20070;-76
2021/05/27 09:15:40;;;;;;;12.60;5.38;;;;;;;17.68;51.67;92549.16;4989461;28;20086;-76
2021/05/27 09:18:06;;;;;;;11.98;5.13;;;;;;;17.86;50.10;92555.06;4974175;28;20465;-76
2021/05/27 09:20:32;;;;;;;12.20;6.10;;;;;;;17.53;50.31;92555.06;4956996;28;20043;-76
2021/05/27 09:23:14;;;;;;;12.05;6.68;;;;;;;17.86;51.05;92552.41;4956762;28;20528;-76
2021/05/27 09:25:46;;;;;;;12.43;5.88;;;;;;;18.11;48.53;92547.13;4989090;28;20050;-76
2021/05/27 09:28:19;;;;;;;12.68;5.28;;;;;;;17.91;50.77;92550.66;4974246;28;20034;-76
2021/05/27 09:30:48;;;;;;;10.32;5.30;;;;;;;18.04;50.10;92550.34;4974133;28;20492;-76
2021/05/27 09:33:15;;;;;;;12.13;5.32;;;;;;;17.39;49.03;92541.38;4989130;28;20563;-76
2021/05/27 09:35:43;;;;;;;14.00;6.10;;;;;;;18.15;48.35;92541.94;4974024;28;20047;-76
2021/05/27 09:38:09;;;;;;;9.25;5.20;;;;;;;18.17;48.07;92547.69;4956593;28;20043;-76
2021/05/27 09:40:42;;;;;;;12.50;5.60;;;;;;;17.92;49.82;92546.91;4956657;28;20054;-76
2021/05/27 09:43:09;;;;;;;11.82;5.80;;;;;;;17.87;49.21;92545.25;4973763;28;20065;-76
2021/05/27 09:45:37;;;;;;;9.00;5.00;;;;;;;18.15;49.20;92544.59;4974020;28;20035;-76
2021/05/27 09:48:20;;;;;;;8.68;5.00;;;;;;;18.36;49.17;92539.94;4973352;28;20054;-76
2021/05/27 09:50:46;;;;;;;10.20;5.28;;;;;;;18.01;49.84;92545.72;4973607;28;20046;-76
2021/05/27 09:53:17;;;;;;;14.98;6.22;;;;;;;18.03;49.82;92538.19;4956296;28;20400;-76
2021/05/27 09:55:44;;;;;;;11.63;5.63;;;;;;;18.41;49.47;92545.03;4973542;28;20071;-76
2021/05/27 09:58:11;;;;;;;13.10;6.22;;;;;;;18.25;48.65;92538.84;4973576;28;20053;-76
2021/05/27 10:00:38;;;;;;;13.68;5.93;;;;;;;18.04;49.05;92539.75;4973407;28;20047;-76
2021/05/27 10:03:22;;;;;;;10.98;5.78;;;;;;;18.10;48.73;92543.72;4956144;28;20468;-76
2021/05/27 10:05:49;;;;;;;18.00;5.47;;;;;;;18.29;49.26;92534.44;4973322;28;20098;-76
2021/05/27 10:08:16;;;;;;;13.07;5.95;;;;;;;18.34;50.29;92536.09;4973274;28;20509;-76
2021/05/27 10:10:42;;;;;;;9.68;5.82;;;;;;;18.68;49.89;92534.81;4985958;28;20066;-76
2021/05/27 10:13:09;;;;;;;12.52;6.10;;;;;;;18.24;48.42;92527.50;4972689;28;20417;-76
2021/05/27 10:15:35;;;;;;;17.08;5.70;;;;;;;18.54;48.12;92531.78;4955860;28;20494;-76
2021/05/27 10:18:05;;;;;;;16.05;6.78;;;;;;;18.09;48.33;92536.09;4988086;28;20073;-76
2021/05/27 10:20:32;;;;;;;11.32;5.70;;;;;;;18.06;48.73;92531.47;4973187;28;20480;-77
2021/05/27 10:22:58;;;;;;;12.15;5.35;;;;;;;17.94;49.72;92528.81;4973364;28;20089;-78
2021/05/27 10:25:26;;;;;;;10.82;5.30;;;;;;;18.28;49.89;92527.59;4973528;28;20047;-76
2021/05/27 10:27:53;;;;;;;13.20;5.13;;;;;;;18.98;48.69;92532.69;4972965;28;20043;-76
2021/05/27 10:30:22;;;;;;;8.65;4.57;;;;;;;19.22;47.06;92536.34;4940025;28;20054;-76
2021/05/27 10:32:52;;;;;;;12.13;5.55;;;;;;;19.09;46.42;92538.25;4955671;28;20125;-76
2021/05/27 10:35:19;;;;;;;10.13;5.35;;;;;;;19.62;45.75;92527.53;4956025;28;20457;-77
2021/05/27 10:37:49;;;;;;;10.52;4.97;;;;;;;19.62;46.53;92522.97;4972942;28;20098;-76
2021/05/27 10:40:18;;;;;;;9.90;5.45;;;;;;;19.67;46.06;92524.63;4972946;28;20493;-76
2021/05/27 10:42:58;;;;;;;8.27;4.47;;;;;;;18.92;46.99;92524.19;4987729;28;20408;-76
2021/05/27 10:45:26;;;;;;;14.55;6.35;;;;;;;18.76;46.16;92536.59;4972839;28;20053;-76
2021/05/27 10:48:25;;;;;;;14.38;5.47;;;;;;;18.80;46.79;92532.19;4972655;28;20034;-76
2021/05/27 10:53:38;;;;;;;13.88;5.57;;;;;;;19.18;46.81;92522.22;4987092;28;20039;-76
2021/05/27 10:56:04;;;;;;;13.52;6.07;;;;;;;18.61;47.66;92519.47;4955438;28;20119;-76
2021/05/27 10:58:48;;;;;;;12.00;5.90;;;;;;;18.42;47.42;92517.44;4955338;28;20512;-76
2021/05/27 11:01:41;;;;;;;20.05;6.18;;;;;;;18.30;47.21;92517.44;4955246;28;20162;-76
2021/05/27 11:04:24;;;;;;;13.43;6.00;;;;;;;18.73;47.37;92511.50;4954875;28;20081;-76
2021/05/27 11:07:12;;;;;;;13.13;5.63;;;;;;;19.06;46.08;92507.88;4972397;28;20049;-76
2021/05/27 11:09:38;;;;;;;11.45;5.65;;;;;;;18.56;45.69;92514.41;4970596;28;20039;-76
2021/05/27 11:12:13;;;;;;;13.07;5.60;;;;;;;18.59;47.29;92512.97;4972309;28;20042;-76
2021/05/27 11:14:40;;;;;;;11.90;5.95;;;;;;;18.13;48.63;92505.19;4987217;28;20089;-76
2021/05/27 11:17:19;;;;;;;13.23;6.15;;;;;;;18.66;48.49;92499.91;4972511;28;20121;-76
2021/05/27 11:19:57;;;;;;;11.25;5.70;;;;;;;18.77;47.89;92501.03;4954705;28;20465;-75
2021/05/27 11:25:16;;;;;;;11.07;5.60;;;;;;;19.10;45.06;92508.00;4986836;28;20520;-76
2021/05/27 11:28:24;;;;;;;18.05;6.40;;;;;;;18.86;46.78;92503.53;4972227;28;20093;-76
2021/05/27 11:30:53;;;;;;;12.35;5.57;;;;;;;19.09;47.75;92485.22;4938880;28;20424;-76
2021/05/27 11:33:18;;;;;;;12.32;5.97;;;;;;;18.81;46.41;92496.59;4970785;28;20042;-76
2021/05/27 11:35:47;;;;;;;14.38;5.30;;;;;;;19.42;46.60;92500.09;4972121;28;20033;-76
2021/05/27 11:38:20;;;;;;;10.85;5.03;;;;;;;19.42;45.50;92492.13;4972224;28;20047;-76
2021/05/27 11:40:50;;;;;;;11.07;5.50;;;;;;;19.70;46.17;92495.53;4955029;28;20505;-76
2021/05/27 11:43:24;;;;;;;8.07;4.60;;;;;;;19.35;48.20;92490.84;4972169;28;20051;-76
2021/05/27 11:45:52;;;;;;;11.85;5.38;;;;;;;18.99;45.55;92501.63;4987030;28;20042;-76
2021/05/27 11:48:33;;;;;;;13.23;4.97;;;;;;;18.93;46.22;92493.13;4971963;28;20078;-76